sensor_id;sensor_type;location;lat;lon;timestamp;pressure;altitude;pressure_sealevel;temperature;humidity
36932;BME280;22847;42.654;23.370;2023-06-04T00:01:05;94837.16;;;17.68;86.57
36932;BME280;22847;42.654;23.370;2023-06-04T00:03:31;94779.03;;;17.47;85.91
36932;BME280;22847;42.654;23.370;2023-06-04T00:05:57;94827.00;;;18.01;85.39
36932;BME280;22847;42.654;23.370;2023-06-04T00:08:22;94802.78;;;17.97;85.80
36932;BME280;22847;42.654;23.370;2023-06-04T00:10:48;94826.75;;;18.17;86.27
36932;BME280;22847;42.654;23.370;2023-06-04T00:13:14;94826.84;;;18.23;86.21
36932;BME280;22847;42.654;23.370;2023-06-04T00:15:39;94830.88;;;18.41;85.29
36932;BME280;22847;42.654;23.370;2023-06-04T00:18:05;94722.44;;;17.78;84.39
36932;BME280;22847;42.654;23.370;2023-06-04T00:20:31;94832.47;;;18.42;84.52
36932;BME280;22847;42.654;23.370;2023-06-04T00:22:56;94806.47;;;18.39;84.47
36932;BME280;22847;42.654;23.370;2023-06-04T00:25:21;94845.06;;;18.54;83.83
36932;BME280;22847;42.654;23.370;2023-06-04T00:27:47;94832.38;;;18.50;81.77
36932;BME280;22847;42.654;23.370;2023-06-04T00:30:13;94662.34;;;17.38;82.55
36932;BME280;22847;42.654;23.370;2023-06-04T00:32:39;94767.88;;;18.16;83.04
36932;BME280;22847;42.654;23.370;2023-06-04T00:35:05;94788.94;;;18.31;83.56
36932;BME280;22847;42.654;23.370;2023-06-04T00:37:31;94816.59;;;18.35;83.20
36932;BME280;22847;42.654;23.370;2023-06-04T00:39:56;94790.25;;;18.20;83.18
36932;BME280;22847;42.654;23.370;2023-06-04T00:42:22;94688.03;;;17.51;83.00
36932;BME280;22847;42.654;23.370;2023-06-04T00:44:47;94823.16;;;18.24;83.95
36932;BME280;22847;42.654;23.370;2023-06-04T00:47:17;94811.63;;;18.25;84.10
36932;BME280;22847;42.654;23.370;2023-06-04T00:49:43;94811.78;;;18.24;85.12
36932;BME280;22847;42.654;23.370;2023-06-04T00:52:10;94778.56;;;18.08;85.43
36932;BME280;22847;42.654;23.370;2023-06-04T00:54:36;94766.22;;;17.44;88.98
36932;BME280;22847;42.654;23.370;2023-06-04T00:57:04;94835.19;;;17.91;88.87
36932;BME280;22847;42.654;23.370;2023-06-04T00:59:30;94802.06;;;17.89;89.17
36932;BME280;22847;42.654;23.370;2023-06-04T01:02:03;94719.19;;;17.47;89.16
36932;BME280;22847;42.654;23.370;2023-06-04T01:07:14;94821.44;;;18.32;88.53
36932;BME280;22847;42.654;23.370;2023-06-04T01:09:40;94813.94;;;18.14;89.37
36932;BME280;22847;42.654;23.370;2023-06-04T01:12:07;94707.03;;;17.46;89.63
36932;BME280;22847;42.654;23.370;2023-06-04T01:14:33;94819.31;;;18.06;91.04
36932;BME280;22847;42.654;23.370;2023-06-04T01:17:03;94728.41;;;17.51;90.37
36932;BME280;22847;42.654;23.370;2023-06-04T01:22:42;94818.94;;;17.73;93.05
36932;BME280;22847;42.654;23.370;2023-06-04T01:25:21;94825.34;;;18.00;92.31
36932;BME280;22847;42.654;23.370;2023-06-04T01:27:54;94836.75;;;17.86;92.94
36932;BME280;22847;42.654;23.370;2023-06-04T01:30:25;94818.19;;;17.79;92.97
36932;BME280;22847;42.654;23.370;2023-06-04T01:32:53;94837.41;;;17.73;93.52
36932;BME280;22847;42.654;23.370;2023-06-04T01:35:18;94826.19;;;17.56;93.74
36932;BME280;22847;42.654;23.370;2023-06-04T01:37:44;94852.94;;;17.38;94.91
36932;BME280;22847;42.654;23.370;2023-06-04T01:40:10;94835.59;;;17.59;93.59
36932;BME280;22847;42.654;23.370;2023-06-04T01:42:35;94820.03;;;17.34;93.04
36932;BME280;22847;42.654;23.370;2023-06-04T01:45:01;94818.56;;;17.03;92.05
36932;BME280;22847;42.654;23.370;2023-06-04T01:47:26;94839.66;;;17.17;91.46
36932;BME280;22847;42.654;23.370;2023-06-04T01:49:52;94713.69;;;16.54;90.83
36932;BME280;22847;42.654;23.370;2023-06-04T01:52:17;94816.75;;;16.88;91.12
36932;BME280;22847;42.654;23.370;2023-06-04T01:54:43;94820.47;;;17.09;89.82
36932;BME280;22847;42.654;23.370;2023-06-04T01:57:08;94843.41;;;17.37;88.99
36932;BME280;22847;42.654;23.370;2023-06-04T01:59:37;94845.41;;;17.35;88.85
36932;BME280;22847;42.654;23.370;2023-06-04T02:02:02;94767.50;;;16.89;89.21
36932;BME280;22847;42.654;23.370;2023-06-04T02:04:28;94694.84;;;16.28;91.32
36932;BME280;22847;42.654;23.370;2023-06-04T02:06:53;94815.22;;;17.09;90.86
36932;BME280;22847;42.654;23.370;2023-06-04T02:09:19;94763.13;;;16.81;90.50
36932;BME280;22847;42.654;23.370;2023-06-04T02:11:44;94840.22;;;17.27;91.33
36932;BME280;22847;42.654;23.370;2023-06-04T02:14:10;94715.94;;;16.05;93.79
36932;BME280;22847;42.654;23.370;2023-06-04T02:16:35;94819.84;;;16.92;93.27
36932;BME280;22847;42.654;23.370;2023-06-04T02:19:01;94877.38;;;17.18;92.70
36932;BME280;22847;42.654;23.370;2023-06-04T02:21:26;94826.75;;;16.93;93.15
36932;BME280;22847;42.654;23.370;2023-06-04T02:23:51;94741.97;;;16.37;92.91
36932;BME280;22847;42.654;23.370;2023-06-04T02:26:17;94868.88;;;16.93;94.77
36932;BME280;22847;42.654;23.370;2023-06-04T02:28:42;94857.97;;;16.96;93.84
36932;BME280;22847;42.654;23.370;2023-06-04T02:31:08;94862.75;;;17.30;93.28
36932;BME280;22847;42.654;23.370;2023-06-04T02:33:33;94867.38;;;17.42;92.30
36932;BME280;22847;42.654;23.370;2023-06-04T02:35:58;94790.19;;;16.75;92.86
36932;BME280;22847;42.654;23.370;2023-06-04T02:38:24;94846.13;;;17.15;92.21
36932;BME280;22847;42.654;23.370;2023-06-04T02:40:49;94845.84;;;17.39;90.92
36932;BME280;22847;42.654;23.370;2023-06-04T02:43:15;94722.00;;;16.66;89.93
36932;BME280;22847;42.654;23.370;2023-06-04T02:45:41;94861.75;;;17.46;90.47
36932;BME280;22847;42.654;23.370;2023-06-04T02:48:06;94878.91;;;17.64;90.31
36932;BME280;22847;42.654;23.370;2023-06-04T02:50:32;94888.41;;;17.51;90.78
36932;BME280;22847;42.654;23.370;2023-06-04T02:52:57;94748.25;;;16.14;93.26
36932;BME280;22847;42.654;23.370;2023-06-04T02:55:23;94902.09;;;17.31;91.97
36932;BME280;22847;42.654;23.370;2023-06-04T02:57:48;94714.69;;;16.16;92.64
36932;BME280;22847;42.654;23.370;2023-06-04T03:00:15;94774.56;;;16.74;91.41
36932;BME280;22847;42.654;23.370;2023-06-04T03:02:46;94886.66;;;17.43;92.14
36932;BME280;22847;42.654;23.370;2023-06-04T03:05:13;94807.66;;;16.91;91.61
36932;BME280;22847;42.654;23.370;2023-06-04T03:07:40;94893.91;;;17.64;90.46
36932;BME280;22847;42.654;23.370;2023-06-04T03:10:08;94896.53;;;17.64;89.92
36932;BME280;22847;42.654;23.370;2023-06-04T03:12:34;94890.97;;;17.59;89.77
36932;BME280;22847;42.654;23.370;2023-06-04T03:14:59;94746.97;;;16.84;89.96
36932;BME280;22847;42.654;23.370;2023-06-04T03:17:26;94892.16;;;17.86;89.43
36932;BME280;22847;42.654;23.370;2023-06-04T03:19:51;94894.72;;;17.64;89.76
36932;BME280;22847;42.654;23.370;2023-06-04T03:22:17;94891.13;;;17.28;91.73
36932;BME280;22847;42.654;23.370;2023-06-04T03:24:42;94874.22;;;17.37;91.29
36932;BME280;22847;42.654;23.370;2023-06-04T03:27:09;94898.06;;;17.58;90.44
36932;BME280;22847;42.654;23.370;2023-06-04T03:29:36;94820.47;;;17.09;90.62
36932;BME280;22847;42.654;23.370;2023-06-04T03:32:02;94901.31;;;17.46;91.23
36932;BME280;22847;42.654;23.370;2023-06-04T03:34:28;94767.00;;;16.71;90.58
36932;BME280;22847;42.654;23.370;2023-06-04T03:36:57;94910.78;;;17.55;91.07
36932;BME280;22847;42.654;23.370;2023-06-04T03:39:23;94919.41;;;17.49;91.75
36932;BME280;22847;42.654;23.370;2023-06-04T03:41:48;94918.13;;;17.45;92.04
36932;BME280;22847;42.654;23.370;2023-06-04T03:44:17;94785.56;;;16.55;92.25
36932;BME280;22847;42.654;23.370;2023-06-04T03:46:44;94922.28;;;17.39;92.41
36932;BME280;22847;42.654;23.370;2023-06-04T03:49:10;94889.97;;;17.08;93.07
36932;BME280;22847;42.654;23.370;2023-06-04T03:51:37;94903.56;;;17.19;92.89
36932;BME280;22847;42.654;23.370;2023-06-04T03:54:02;94790.63;;;16.19;95.04
36932;BME280;22847;42.654;23.370;2023-06-04T03:56:28;94928.25;;;17.18;94.37
36932;BME280;22847;42.654;23.370;2023-06-04T03:58:53;94784.91;;;16.52;92.64
36932;BME280;22847;42.654;23.370;2023-06-04T04:01:19;94949.47;;;17.39;93.56
36932;BME280;22847;42.654;23.370;2023-06-04T04:03:44;94924.44;;;17.21;93.83
36932;BME280;22847;42.654;23.370;2023-06-04T04:06:13;94910.19;;;17.15;93.78
36932;BME280;22847;42.654;23.370;2023-06-04T04:08:40;94927.59;;;17.16;94.36
36932;BME280;22847;42.654;23.370;2023-06-04T04:11:07;94939.34;;;17.14;94.38
36932;BME280;22847;42.654;23.370;2023-06-04T04:13:33;94792.34;;;16.34;94.29
36932;BME280;22847;42.654;23.370;2023-06-04T04:15:58;94861.81;;;16.71;95.18
36932;BME280;22847;42.654;23.370;2023-06-04T04:18:24;94926.91;;;17.22;94.58
36932;BME280;22847;42.654;23.370;2023-06-04T04:20:50;94927.50;;;17.10;95.54
36932;BME280;22847;42.654;23.370;2023-06-04T04:23:15;94957.94;;;17.12;95.26
36932;BME280;22847;42.654;23.370;2023-06-04T04:25:42;94944.94;;;17.33;94.68
36932;BME280;22847;42.654;23.370;2023-06-04T04:28:09;94960.47;;;17.28;95.03
36932;BME280;22847;42.654;23.370;2023-06-04T04:30:35;94941.94;;;17.36;94.99
36932;BME280;22847;42.654;23.370;2023-06-04T04:33:01;94848.94;;;16.76;93.87
36932;BME280;22847;42.654;23.370;2023-06-04T04:35:27;94941.41;;;17.56;93.13
36932;BME280;22847;42.654;23.370;2023-06-04T04:37:54;94784.69;;;16.62;92.76
36932;BME280;22847;42.654;23.370;2023-06-04T04:40:20;94952.03;;;17.48;93.79
36932;BME280;22847;42.654;23.370;2023-06-04T04:42:46;94871.97;;;17.11;93.13
36932;BME280;22847;42.654;23.370;2023-06-04T04:45:11;94915.22;;;17.54;91.57
36932;BME280;22847;42.654;23.370;2023-06-04T04:47:37;94935.63;;;17.60;92.33
36932;BME280;22847;42.654;23.370;2023-06-04T04:50:03;94907.63;;;17.22;94.10
36932;BME280;22847;42.654;23.370;2023-06-04T04:52:29;94957.81;;;17.28;94.54
36932;BME280;22847;42.654;23.370;2023-06-04T04:54:54;94939.63;;;17.19;93.89
36932;BME280;22847;42.654;23.370;2023-06-04T04:57:23;94916.03;;;17.03;93.01
36932;BME280;22847;42.654;23.370;2023-06-04T04:59:49;94940.56;;;17.40;92.63
36932;BME280;22847;42.654;23.370;2023-06-04T05:02:15;94838.63;;;16.66;92.20
36932;BME280;22847;42.654;23.370;2023-06-04T05:04:40;94951.00;;;17.34;92.85
36932;BME280;22847;42.654;23.370;2023-06-04T05:07:06;94950.22;;;17.33;92.95
36932;BME280;22847;42.654;23.370;2023-06-04T05:09:31;94967.81;;;17.70;90.28
36932;BME280;22847;42.654;23.370;2023-06-04T05:11:56;94952.00;;;17.70;89.38
36932;BME280;22847;42.654;23.370;2023-06-04T05:14:22;94899.34;;;17.25;88.90
36932;BME280;22847;42.654;23.370;2023-06-04T05:16:48;94937.47;;;17.37;90.18
36932;BME280;22847;42.654;23.370;2023-06-04T05:19:15;94959.22;;;17.54;89.36
36932;BME280;22847;42.654;23.370;2023-06-04T05:21:41;94956.19;;;17.27;91.20
36932;BME280;22847;42.654;23.370;2023-06-04T05:24:08;94944.78;;;17.50;90.40
36932;BME280;22847;42.654;23.370;2023-06-04T05:26:34;94852.91;;;17.09;89.50
36932;BME280;22847;42.654;23.370;2023-06-04T05:28:59;94957.53;;;17.61;89.35
36932;BME280;22847;42.654;23.370;2023-06-04T05:31:26;94810.50;;;16.67;89.72
36932;BME280;22847;42.654;23.370;2023-06-04T05:33:54;94926.97;;;17.14;91.50
36932;BME280;22847;42.654;23.370;2023-06-04T05:36:20;94955.28;;;17.35;91.84
36932;BME280;22847;42.654;23.370;2023-06-04T05:38:45;94954.84;;;17.69;90.28
36932;BME280;22847;42.654;23.370;2023-06-04T05:41:10;94851.84;;;17.18;88.91
36932;BME280;22847;42.654;23.370;2023-06-04T05:43:37;94942.34;;;17.92;88.16
36932;BME280;22847;42.654;23.370;2023-06-04T05:46:03;94940.28;;;17.88;87.26
36932;BME280;22847;42.654;23.370;2023-06-04T05:48:28;94952.53;;;17.66;87.00
36932;BME280;22847;42.654;23.370;2023-06-04T05:50:53;94978.69;;;18.05;86.17
36932;BME280;22847;42.654;23.370;2023-06-04T05:53:19;94917.91;;;17.69;85.73
36932;BME280;22847;42.654;23.370;2023-06-04T05:55:44;94975.84;;;17.92;86.34
36932;BME280;22847;42.654;23.370;2023-06-04T05:58:10;94966.19;;;17.69;85.60
36932;BME280;22847;42.654;23.370;2023-06-04T06:00:35;94982.38;;;17.81;85.34
36932;BME280;22847;42.654;23.370;2023-06-04T06:03:00;94904.63;;;17.25;85.55
36932;BME280;22847;42.654;23.370;2023-06-04T06:05:26;94966.97;;;17.55;85.43
36932;BME280;22847;42.654;23.370;2023-06-04T06:07:52;94995.84;;;17.71;85.69
36932;BME280;22847;42.654;23.370;2023-06-04T06:10:17;94998.88;;;17.83;85.84
36932;BME280;22847;42.654;23.370;2023-06-04T06:12:43;94998.03;;;17.82;85.27
36932;BME280;22847;42.654;23.370;2023-06-04T06:15:10;94954.16;;;17.29;85.29
36932;BME280;22847;42.654;23.370;2023-06-04T06:17:38;95002.34;;;17.61;85.24
36932;BME280;22847;42.654;23.370;2023-06-04T06:20:03;94995.22;;;17.84;84.37
36932;BME280;22847;42.654;23.370;2023-06-04T06:22:32;95003.25;;;18.05;83.60
36932;BME280;22847;42.654;23.370;2023-06-04T06:24:57;94999.13;;;18.17;83.92
36932;BME280;22847;42.654;23.370;2023-06-04T06:27:24;94970.19;;;17.80;83.17
36932;BME280;22847;42.654;23.370;2023-06-04T06:29:50;94986.66;;;18.11;83.11
36932;BME280;22847;42.654;23.370;2023-06-04T06:32:16;95001.59;;;18.19;81.44
36932;BME280;22847;42.654;23.370;2023-06-04T06:34:41;94985.50;;;18.14;82.41
36932;BME280;22847;42.654;23.370;2023-06-04T06:37:07;94985.38;;;17.93;81.55
36932;BME280;22847;42.654;23.370;2023-06-04T06:39:32;94935.31;;;17.40;83.27
36932;BME280;22847;42.654;23.370;2023-06-04T06:41:58;95015.97;;;17.87;82.82
36932;BME280;22847;42.654;23.370;2023-06-04T06:44:23;94893.91;;;17.26;82.52
36932;BME280;22847;42.654;23.370;2023-06-04T06:46:49;94969.09;;;17.74;82.18
36932;BME280;22847;42.654;23.370;2023-06-04T06:49:15;94862.19;;;17.34;81.91
36932;BME280;22847;42.654;23.370;2023-06-04T06:51:40;95008.50;;;18.20;82.15
36932;BME280;22847;42.654;23.370;2023-06-04T06:54:08;94902.53;;;17.72;81.28
36932;BME280;22847;42.654;23.370;2023-06-04T06:56:34;95009.03;;;18.45;80.10
36932;BME280;22847;42.654;23.370;2023-06-04T06:58:59;95016.22;;;18.51;79.01
36932;BME280;22847;42.654;23.370;2023-06-04T07:01:25;94891.06;;;17.95;78.00
36932;BME280;22847;42.654;23.370;2023-06-04T07:03:50;95013.22;;;18.39;79.11
36932;BME280;22847;42.654;23.370;2023-06-04T07:06:16;94982.84;;;18.14;80.21
36932;BME280;22847;42.654;23.370;2023-06-04T07:08:41;95000.38;;;18.51;79.59
36932;BME280;22847;42.654;23.370;2023-06-04T07:11:07;95017.78;;;18.60;79.59
36932;BME280;22847;42.654;23.370;2023-06-04T07:13:37;95025.78;;;18.66;78.72
36932;BME280;22847;42.654;23.370;2023-06-04T07:16:02;94973.44;;;18.41;78.53
36932;BME280;22847;42.654;23.370;2023-06-04T07:18:28;94951.47;;;18.19;79.98
36932;BME280;22847;42.654;23.370;2023-06-04T07:20:53;94911.25;;;17.73;79.88
36932;BME280;22847;42.654;23.370;2023-06-04T07:23:19;94899.72;;;17.59;80.96
36932;BME280;22847;42.654;23.370;2023-06-04T07:25:44;94896.81;;;17.69;81.17
36932;BME280;22847;42.654;23.370;2023-06-04T07:28:10;95042.25;;;18.83;78.98
36932;BME280;22847;42.654;23.370;2023-06-04T07:30:35;95043.91;;;18.69;79.53
36932;BME280;22847;42.654;23.370;2023-06-04T07:33:02;95056.34;;;18.90;79.28
36932;BME280;22847;42.654;23.370;2023-06-04T07:35:27;95050.38;;;18.82;80.06
36932;BME280;22847;42.654;23.370;2023-06-04T07:37:53;95021.25;;;18.60;79.64
36932;BME280;22847;42.654;23.370;2023-06-04T07:40:18;95027.31;;;18.46;80.54
36932;BME280;22847;42.654;23.370;2023-06-04T07:42:45;95061.84;;;18.74;80.86
36932;BME280;22847;42.654;23.370;2023-06-04T07:45:11;95051.06;;;18.90;79.63
36932;BME280;22847;42.654;23.370;2023-06-04T07:47:36;95026.44;;;19.04;78.97
36932;BME280;22847;42.654;23.370;2023-06-04T07:50:03;94948.81;;;18.69;78.84
36932;BME280;22847;42.654;23.370;2023-06-04T07:52:29;95051.63;;;19.43;76.74
36932;BME280;22847;42.654;23.370;2023-06-04T07:54:54;95081.28;;;19.38;86.32
36932;BME280;22847;42.654;23.370;2023-06-04T07:57:20;95040.34;;;20.04;94.68
36932;BME280;22847;42.654;23.370;2023-06-04T07:59:46;94947.72;;;20.11;83.98
36932;BME280;22847;42.654;23.370;2023-06-04T08:02:11;95051.56;;;21.16;78.06
36932;BME280;22847;42.654;23.370;2023-06-04T08:04:36;95004.56;;;21.10;74.23
36932;BME280;22847;42.654;23.370;2023-06-04T08:07:02;95055.09;;;21.63;73.16
36932;BME280;22847;42.654;23.370;2023-06-04T08:09:27;94930.13;;;21.12;71.95
36932;BME280;22847;42.654;23.370;2023-06-04T08:11:53;94929.13;;;21.26;72.16
36932;BME280;22847;42.654;23.370;2023-06-04T08:14:18;95028.78;;;22.01;72.22
36932;BME280;22847;42.654;23.370;2023-06-04T08:16:47;95048.78;;;21.90;69.92
36932;BME280;22847;42.654;23.370;2023-06-04T08:19:12;95054.09;;;22.16;68.39
36932;BME280;22847;42.654;23.370;2023-06-04T08:21:38;95057.34;;;22.25;67.54
36932;BME280;22847;42.654;23.370;2023-06-04T08:24:05;95017.72;;;22.17;66.29
36932;BME280;22847;42.654;23.370;2023-06-04T08:26:31;95000.59;;;21.93;66.14
36932;BME280;22847;42.654;23.370;2023-06-04T08:28:57;94963.63;;;21.65;65.66
36932;BME280;22847;42.654;23.370;2023-06-04T08:31:23;95061.84;;;22.38;65.14
36932;BME280;22847;42.654;23.370;2023-06-04T08:33:48;95057.78;;;22.09;65.57
36932;BME280;22847;42.654;23.370;2023-06-04T08:36:14;95063.88;;;21.57;67.62
36932;BME280;22847;42.654;23.370;2023-06-04T08:38:42;95061.84;;;21.52;67.96
36932;BME280;22847;42.654;23.370;2023-06-04T08:41:25;95068.34;;;21.50;69.27
36932;BME280;22847;42.654;23.370;2023-06-04T08:43:56;95080.97;;;21.34;69.05
36932;BME280;22847;42.654;23.370;2023-06-04T08:46:23;95049.84;;;21.09;69.64
36932;BME280;22847;42.654;23.370;2023-06-04T08:48:49;95077.75;;;21.52;68.47
36932;BME280;22847;42.654;23.370;2023-06-04T08:51:15;95082.25;;;21.65;67.73
36932;BME280;22847;42.654;23.370;2023-06-04T08:53:42;95084.25;;;21.36;67.94
36932;BME280;22847;42.654;23.370;2023-06-04T08:56:07;94989.09;;;21.14;69.86
36932;BME280;22847;42.654;23.370;2023-06-04T08:58:35;95058.56;;;21.50;67.33
36932;BME280;22847;42.654;23.370;2023-06-04T09:01:01;95039.03;;;21.04;67.91
36932;BME280;22847;42.654;23.370;2023-06-04T09:03:28;95036.31;;;20.84;66.46
36932;BME280;22847;42.654;23.370;2023-06-04T09:05:58;95077.31;;;20.47;66.96
36932;BME280;22847;42.654;23.370;2023-06-04T09:08:24;95086.28;;;20.46;67.68
36932;BME280;22847;42.654;23.370;2023-06-04T09:10:53;95079.69;;;20.35;67.53
36932;BME280;22847;42.654;23.370;2023-06-04T09:13:21;95060.41;;;19.92;69.11
36932;BME280;22847;42.654;23.370;2023-06-04T09:16:04;94978.34;;;19.58;68.73
36932;BME280;22847;42.654;23.370;2023-06-04T09:18:31;95101.63;;;20.29;68.00
36932;BME280;22847;42.654;23.370;2023-06-04T09:21:04;95060.00;;;20.17;68.83
36932;BME280;22847;42.654;23.370;2023-06-04T09:23:46;95111.41;;;20.57;68.98
36932;BME280;22847;42.654;23.370;2023-06-04T09:26:12;95094.63;;;20.43;68.46
36932;BME280;22847;42.654;23.370;2023-06-04T09:28:41;95088.81;;;20.61;67.45
36932;BME280;22847;42.654;23.370;2023-06-04T09:31:16;95091.94;;;20.71;66.68
36932;BME280;22847;42.654;23.370;2023-06-04T09:33:48;95076.63;;;20.73;65.70
36932;BME280;22847;42.654;23.370;2023-06-04T09:36:14;95093.28;;;20.60;67.74
36932;BME280;22847;42.654;23.370;2023-06-04T09:38:40;95091.34;;;20.82;66.84
36932;BME280;22847;42.654;23.370;2023-06-04T09:41:13;95110.97;;;20.94;65.97
36932;BME280;22847;42.654;23.370;2023-06-04T09:43:39;95088.38;;;20.57;67.02
36932;BME280;22847;42.654;23.370;2023-06-04T09:46:12;95089.56;;;20.89;66.53
36932;BME280;22847;42.654;23.370;2023-06-04T09:48:39;95082.28;;;21.04;65.75
36932;BME280;22847;42.654;23.370;2023-06-04T09:53:33;95115.09;;;20.97;66.78
36932;BME280;22847;42.654;23.370;2023-06-04T09:56:00;95078.00;;;21.10;65.78
36932;BME280;22847;42.654;23.370;2023-06-04T09:58:27;94956.56;;;20.25;66.31
36932;BME280;22847;42.654;23.370;2023-06-04T10:00:57;95090.53;;;20.81;66.70
36932;BME280;22847;42.654;23.370;2023-06-04T10:03:31;95079.31;;;21.20;65.50
36932;BME280;22847;42.654;23.370;2023-06-04T10:05:58;95077.13;;;21.50;65.49
36932;BME280;22847;42.654;23.370;2023-06-04T10:08:26;95072.84;;;21.49;64.99
36932;BME280;22847;42.654;23.370;2023-06-04T10:10:56;95093.47;;;21.60;64.96
36932;BME280;22847;42.654;23.370;2023-06-04T10:13:24;95067.56;;;21.82;63.71
36932;BME280;22847;42.654;23.370;2023-06-04T10:15:52;95082.69;;;21.81;62.99
36932;BME280;22847;42.654;23.370;2023-06-04T10:18:18;95075.94;;;21.86;63.15
36932;BME280;22847;42.654;23.370;2023-06-04T10:20:44;95053.22;;;21.44;63.83
36932;BME280;22847;42.654;23.370;2023-06-04T10:23:10;94945.91;;;20.59;64.85
36932;BME280;22847;42.654;23.370;2023-06-04T10:25:37;95077.34;;;21.55;63.97
36932;BME280;22847;42.654;23.370;2023-06-04T10:28:03;95066.47;;;21.30;63.83
36932;BME280;22847;42.654;23.370;2023-06-04T10:30:29;95064.88;;;21.62;63.59
36932;BME280;22847;42.654;23.370;2023-06-04T10:32:56;95072.41;;;21.32;63.96
36932;BME280;22847;42.654;23.370;2023-06-04T10:35:35;94958.72;;;20.49;64.31
36932;BME280;22847;42.654;23.370;2023-06-04T10:38:18;95052.13;;;21.12;65.45
36932;BME280;22847;42.654;23.370;2023-06-04T10:40:46;94960.47;;;20.89;64.88
36932;BME280;22847;42.654;23.370;2023-06-04T10:43:12;95077.75;;;21.52;62.72
36932;BME280;22847;42.654;23.370;2023-06-04T10:45:39;95104.41;;;21.24;64.88
36932;BME280;22847;42.654;23.370;2023-06-04T10:48:06;95050.78;;;21.42;63.66
36932;BME280;22847;42.654;23.370;2023-06-04T10:50:32;94954.41;;;21.02;63.50
36932;BME280;22847;42.654;23.370;2023-06-04T10:53:01;95027.94;;;21.80;63.27
36932;BME280;22847;42.654;23.370;2023-06-04T10:55:30;95078.00;;;22.23;62.91
36932;BME280;22847;42.654;23.370;2023-06-04T10:58:00;95061.47;;;22.01;62.04
36932;BME280;22847;42.654;23.370;2023-06-04T11:00:43;95072.91;;;22.15;61.87
36932;BME280;22847;42.654;23.370;2023-06-04T11:03:12;95060.22;;;21.91;62.88
36932;BME280;22847;42.654;23.370;2023-06-04T11:05:41;95082.09;;;22.19;62.39
36932;BME280;22847;42.654;23.370;2023-06-04T11:08:07;95035.72;;;21.95;61.38
36932;BME280;22847;42.654;23.370;2023-06-04T11:10:39;95039.41;;;22.01;61.10
36932;BME280;22847;42.654;23.370;2023-06-04T11:13:05;95059.59;;;22.35;61.17
36932;BME280;22847;42.654;23.370;2023-06-04T11:15:44;94931.38;;;21.22;62.53
36932;BME280;22847;42.654;23.370;2023-06-04T11:18:14;95061.66;;;22.13;62.71
36932;BME280;22847;42.654;23.370;2023-06-04T11:20:40;95057.78;;;22.22;62.37
36932;BME280;22847;42.654;23.370;2023-06-04T11:23:07;95074.34;;;22.24;62.74
36932;BME280;22847;42.654;23.370;2023-06-04T11:25:33;95071.66;;;21.65;63.10
36932;BME280;22847;42.654;23.370;2023-06-04T11:28:00;95085.09;;;21.63;63.30
36932;BME280;22847;42.654;23.370;2023-06-04T11:30:26;95058.13;;;21.53;63.45
36932;BME280;22847;42.654;23.370;2023-06-04T11:33:05;94932.56;;;20.93;63.89
36932;BME280;22847;42.654;23.370;2023-06-04T11:35:39;95063.28;;;21.61;63.82
36932;BME280;22847;42.654;23.370;2023-06-04T11:38:05;95044.44;;;21.36;64.07
36932;BME280;22847;42.654;23.370;2023-06-04T11:40:31;95043.03;;;21.67;63.19
36932;BME280;22847;42.654;23.370;2023-06-04T11:42:56;95033.25;;;21.80;61.48
36932;BME280;22847;42.654;23.370;2023-06-04T11:45:23;95073.69;;;21.76;62.03
36932;BME280;22847;42.654;23.370;2023-06-04T11:47:53;95031.22;;;21.56;61.78
36932;BME280;22847;42.654;23.370;2023-06-04T11:50:19;95058.78;;;21.55;62.96
36932;BME280;22847;42.654;23.370;2023-06-04T11:52:47;95080.69;;;22.10;62.44
36932;BME280;22847;42.654;23.370;2023-06-04T11:55:13;95057.75;;;21.63;62.70
36932;BME280;22847;42.654;23.370;2023-06-04T11:57:40;95050.03;;;22.14;61.79
36932;BME280;22847;42.654;23.370;2023-06-04T12:00:07;95059.63;;;22.28;61.78
36932;BME280;22847;42.654;23.370;2023-06-04T12:02:48;94927.72;;;21.43;61.94
36932;BME280;22847;42.654;23.370;2023-06-04T12:05:14;95078.59;;;22.32;60.89
36932;BME280;22847;42.654;23.370;2023-06-04T12:07:40;95057.38;;;21.92;62.33
36932;BME280;22847;42.654;23.370;2023-06-04T12:10:07;95034.88;;;21.42;63.28
36932;BME280;22847;42.654;23.370;2023-06-04T12:12:34;95035.69;;;20.75;65.75
36932;BME280;22847;42.654;23.370;2023-06-04T12:15:00;95073.63;;;20.82;66.66
36932;BME280;22847;42.654;23.370;2023-06-04T12:17:26;94976.16;;;20.78;66.00
36932;BME280;22847;42.654;23.370;2023-06-04T12:19:52;94960.28;;;20.84;64.58
36932;BME280;22847;42.654;23.370;2023-06-04T12:22:18;94951.66;;;20.76;64.30
36932;BME280;22847;42.654;23.370;2023-06-04T12:24:54;95104.25;;;21.46;64.30
36932;BME280;22847;42.654;23.370;2023-06-04T12:27:22;95070.25;;;21.02;66.16
36932;BME280;22847;42.654;23.370;2023-06-04T12:29:55;95043.94;;;20.59;67.07
36932;BME280;22847;42.654;23.370;2023-06-04T12:32:21;94959.75;;;20.14;66.70
36932;BME280;22847;42.654;23.370;2023-06-04T12:34:47;95011.78;;;20.69;66.53
36932;BME280;22847;42.654;23.370;2023-06-04T12:37:13;95078.53;;;21.33;65.75
36932;BME280;22847;42.654;23.370;2023-06-04T12:39:39;95028.69;;;21.22;64.35
36932;BME280;22847;42.654;23.370;2023-06-04T12:42:06;95051.56;;;21.16;65.28
36932;BME280;22847;42.654;23.370;2023-06-04T12:44:32;95075.53;;;21.02;65.88
36932;BME280;22847;42.654;23.370;2023-06-04T12:46:58;95067.53;;;20.88;66.32
36932;BME280;22847;42.654;23.370;2023-06-04T12:49:24;95039.84;;;21.04;64.89
36932;BME280;22847;42.654;23.370;2023-06-04T12:51:49;95015.44;;;20.61;65.17
36932;BME280;22847;42.654;23.370;2023-06-04T12:54:15;95069.81;;;20.98;65.56
36932;BME280;22847;42.654;23.370;2023-06-04T12:56:40;95074.53;;;21.03;65.92